Time;durP1;ratioP1;P1;durP2;ratioP2;P2;SDS_P1;SDS_P2;PMS_P1;PMS_P2;Temp;Humidity;BMP_temperature;BMP_pressure;BME280_temperature;BME280_humidity;BME280_pressure;Samples;Min_cycle;Max_cycle;Signal;HPM_P1;HPM_P2
2022/09/16 00:03:16;;;;;;;13.32;5.43;;;;;;;18.07;84.74;99924.59;10245924;28;20047;-70
2022/09/16 00:08:20;;;;;;;9.15;5.07;;;;;;;18.14;84.13;99941.47;10245176;28;20051;-70
2022/09/16 00:13:20;;;;;;;10.63;4.82;;;;;;;18.11;84.20;99929.31;10245690;28;20050;-70
2022/09/16 00:18:21;;;;;;;5.95;4.38;;;;;;;17.65;84.11;99846.56;10245634;28;20058;-70
2022/09/16 00:23:22;;;;;;;7.05;4.63;;;;;;;18.13;84.02;99908.41;10246047;28;20050;-70
2022/09/16 00:28:23;;;;;;;5.68;4.32;;;;;;;18.18;83.98;99911.22;10245145;28;20050;-70
2022/09/16 00:33:24;;;;;;;6.45;4.03;;;;;;;18.17;84.29;99904.19;10255700;28;20372;-70
2022/09/16 00:38:25;;;;;;;8.38;4.35;;;;;;;18.08;84.02;99894.00;10244552;28;20043;-70
2022/09/16 00:43:26;;;;;;;5.00;4.35;;;;;;;18.03;84.13;99883.94;10244552;28;20050;-70
2022/09/16 00:48:29;;;;;;;6.45;4.18;;;;;;;17.82;83.32;99846.81;10244140;28;20518;-70
2022/09/16 00:53:55;;;;;;;6.57;4.03;;;;;;;18.19;84.37;99923.63;10247064;28;20092;-70
2022/09/16 00:59:14;;;;;;;6.15;4.38;;;;;;;18.28;85.45;99920.59;10250614;28;20141;-69
2022/09/16 01:04:19;;;;;;;9.20;4.50;;;;;;;17.91;84.27;99872.31;10251135;28;20050;-69
2022/09/16 01:09:22;;;;;;;5.07;3.83;;;;;;;18.17;84.38;99911.44;10250465;28;20517;-69
2022/09/16 01:20:06;;;;;;;10.73;4.95;;;;;;;18.14;86.88;99903.84;10250122;29;20046;-70
2022/09/16 01:25:07;;;;;;;7.88;4.57;;;;;;;18.30;84.08;99918.50;10259446;28;20517;-70
2022/09/16 01:30:20;;;;;;;8.75;4.70;;;;;;;17.43;84.13;99784.47;10287220;28;20057;-70
2022/09/16 01:35:45;;;;;;;8.82;4.68;;;;;;;17.47;84.10;99788.34;10288657;28;20043;-70
2022/09/16 01:41:26;;;;;;;9.55;4.72;;;;;;;18.08;85.38;99896.69;10250338;28;20047;-70
2022/09/16 01:47:08;;;;;;;7.78;4.88;;;;;;;17.20;86.12;99772.59;10250834;28;20051;-69
2022/09/16 01:52:27;;;;;;;6.95;4.05;;;;;;;17.84;86.82;99893.09;10255884;28;20046;-69
2022/09/16 01:57:35;;;;;;;6.13;4.60;;;;;;;17.59;86.98;99875.19;10268599;28;20532;-69
2022/09/16 02:02:39;;;;;;;9.70;5.20;;;;;;;17.47;86.00;99866.22;10248669;28;20056;-70
2022/09/16 02:07:46;;;;;;;8.75;5.45;;;;;;;17.36;87.95;99857.06;10265585;28;20509;-69
2022/09/16 02:12:52;;;;;;;14.35;5.80;;;;;;;17.49;87.50;99881.06;10289508;28;20371;-70
2022/09/16 02:18:15;;;;;;;14.57;5.50;;;;;;;17.57;88.72;99869.22;10288299;28;20046;-69
2022/09/16 02:23:25;;;;;;;11.17;5.80;;;;;;;17.42;88.92;99858.03;10288125;28;20375;-69
2022/09/16 02:28:32;;;;;;;18.52;5.88;;;;;;;17.02;88.58;99788.69;10266380;28;20031;-70
2022/09/16 02:33:39;;;;;;;25.45;6.57;;;;;;;17.47;88.34;99860.84;10247882;28;20062;-69
2022/09/16 02:38:45;;;;;;;20.70;6.75;;;;;;;17.57;88.99;99871.91;10247866;28;20035;-69
2022/09/16 02:43:46;;;;;;;55.85;7.47;;;;;;;17.47;87.71;99844.72;10246463;29;20160;-70
2022/09/16 02:48:52;;;;;;;30.17;7.28;;;;;;;17.65;87.80;99874.28;10248131;28;20047;-70
2022/09/16 02:54:33;;;;;;;30.27;6.80;;;;;;;17.70;89.70;99877.09;10247446;28;20043;-69
2022/09/16 02:59:33;;;;;;;35.05;7.32;;;;;;;17.67;87.80;99874.84;10247622;28;20055;-69
2022/09/16 03:04:35;;;;;;;24.10;6.55;;;;;;;17.47;87.59;99839.38;10246914;28;20505;-69
2022/09/16 03:09:40;;;;;;;14.93;5.55;;;;;;;17.79;88.17;99888.38;10247158;28;20044;-69
2022/09/16 03:15:23;;;;;;;33.58;7.53;;;;;;;17.93;88.40;99889.03;10264620;28;20047;-69
2022/09/16 03:20:36;;;;;;;197.85;17.90;;;;;;;17.55;87.04;99825.63;10247422;28;20050;-69
2022/09/16 03:25:49;;;;;;;49.38;8.23;;;;;;;17.99;87.18;99885.44;10247641;28;20130;-70
2022/09/16 03:31:04;;;;;;;22.17;6.72;;;;;;;18.09;87.60;99898.31;10245427;28;20127;-70
2022/09/16 03:36:08;;;;;;;16.75;6.80;;;;;;;18.11;87.39;99891.69;10280528;28;20490;-70
2022/09/16 03:41:09;;;;;;;;;;;;;;;18.35;86.67;99899.81;10287171;28;20051;-69
2022/09/16 03:46:10;;;;;;;148.82;14.57;;;;;;;18.10;87.35;99875.75;10286343;28;19917;-69
2022/09/16 03:51:11;;;;;;;55.45;9.20;;;;;;;18.16;88.02;99889.13;10286133;28;20387;-70
2022/09/16 03:56:12;;;;;;;45.90;8.23;;;;;;;18.22;88.00;99887.41;10284977;28;20039;-71
2022/09/16 04:01:13;;;;;;;23.48;6.82;;;;;;;18.19;87.50;99875.22;10283781;28;20058;-70
2022/09/16 04:06:14;;;;;;;25.10;6.60;;;;;;;18.10;86.93;99833.59;10282425;28;20455;-70
2022/09/16 04:11:15;;;;;;;12.57;5.78;;;;;;;18.48;86.32;99872.72;10282739;28;20042;-70
2022/09/16 04:16:20;;;;;;;9.30;5.35;;;;;;;18.48;86.28;99851.19;10277386;28;20045;-71
2022/09/16 04:21:22;;;;;;;12.32;5.93;;;;;;;18.57;85.18;99835.53;10282450;28;20077;-70
2022/09/16 04:26:22;;;;;;;16.92;6.10;;;;;;;18.45;84.85;99789.81;10283770;28;20579;-69
2022/09/16 04:31:23;;;;;;;19.55;5.63;;;;;;;19.03;84.04;99866.25;10284352;28;20108;-69
2022/09/16 04:36:24;;;;;;;22.92;5.65;;;;;;;19.21;83.90;99868.78;10257256;28;20457;-70
2022/09/16 04:41:26;;;;;;;18.50;5.03;;;;;;;19.42;82.57;99848.50;10283634;28;20092;-71
2022/09/16 04:46:29;;;;;;;16.63;6.18;;;;;;;19.71;81.63;99862.00;10289317;28;20051;-71
2022/09/16 04:51:31;;;;;;;9.82;5.53;;;;;;;19.74;80.12;99831.88;10268497;28;20513;-70
2022/09/16 04:56:32;;;;;;;10.82;4.00;;;;;;;20.12;79.51;99854.69;10251292;28;20039;-71
2022/09/16 05:01:37;;;;;;;22.80;4.78;;;;;;;20.40;77.32;99857.38;10251679;28;20059;-71
2022/09/16 05:06:40;;;;;;;23.92;5.18;;;;;;;20.74;76.87;99860.88;10251532;28;20093;-71
2022/09/16 05:11:47;;;;;;;12.80;4.53;;;;;;;21.31;74.18;99859.78;10251501;28;20078;-70
2022/09/16 05:17:07;;;;;;;6.70;3.80;;;;;;;21.68;71.59;99869.19;10250660;28;20796;-71
2022/09/16 05:22:08;;;;;;;9.13;3.85;;;;;;;21.75;71.19;99867.13;10250855;28;20124;-71
2022/09/16 05:27:09;;;;;;;10.38;3.80;;;;;;;21.83;70.70;99883.69;10250036;28;20062;-72
2022/09/16 05:32:10;;;;;;;5.80;3.33;;;;;;;21.83;69.82;99901.81;10250557;28;20516;-71
2022/09/16 05:37:10;;;;;;;13.98;3.60;;;;;;;21.83;69.75;99889.09;10250359;28;20047;-71
2022/09/16 05:42:11;;;;;;;6.20;3.33;;;;;;;21.38;69.18;99829.91;10264783;28;20465;-71
2022/09/16 05:47:12;;;;;;;21.13;3.75;;;;;;;21.87;70.08;99892.94;10249376;28;20047;-71
2022/09/16 05:52:13;;;;;;;9.93;3.80;;;;;;;21.80;69.53;99869.88;10249632;28;20039;-71
2022/09/16 05:57:13;;;;;;;9.45;4.00;;;;;;;21.95;69.63;99886.25;10249346;28;20470;-71
2022/09/16 06:02:15;;;;;;;8.07;3.72;;;;;;;21.78;69.00;99835.00;10248474;29;20494;-70
2022/09/16 06:07:16;;;;;;;8.63;3.65;;;;;;;22.23;67.17;99833.81;10249491;28;20142;-72
2022/09/16 06:12:17;;;;;;;7.75;3.22;;;;;;;23.21;65.26;99893.06;10248744;28;20126;-73
2022/09/16 06:17:17;;;;;;;9.95;3.70;;;;;;;23.67;64.02;99870.75;10249048;28;20134;-71
2022/09/16 06:22:18;;;;;;;6.22;3.63;;;;;;;23.67;63.60;99879.69;10249056;28;20043;-72
2022/09/16 06:27:19;;;;;;;6.68;3.55;;;;;;;24.24;62.35;99858.97;10248677;28;20406;-71
2022/09/16 06:32:20;;;;;;;5.88;3.30;;;;;;;24.76;60.00;99857.06;10248039;28;20043;-71
2022/09/16 06:37:20;;;;;;;8.35;2.90;;;;;;;25.09;57.41;99850.22;10248033;28;20075;-71
2022/09/16 06:42:21;;;;;;;7.45;3.13;;;;;;;25.11;56.70;99795.59;10247850;28;20088;-70
2022/09/16 06:47:22;;;;;;;6.90;3.50;;;;;;;25.68;55.39;99849.47;10246962;29;20050;-71
2022/09/16 06:52:22;;;;;;;8.20;3.20;;;;;;;25.95;53.71;99843.63;10246845;28;20043;-71
2022/09/16 06:57:23;;;;;;;8.90;3.10;;;;;;;25.68;52.40;99748.81;10247819;28;20104;-71
2022/09/16 07:02:25;;;;;;;9.20;2.97;;;;;;;26.62;50.78;99848.56;10248039;28;20517;-72
2022/09/16 07:07:30;;;;;;;10.45;3.20;;;;;;;26.79;48.54;99810.81;10247657;28;20043;-71
2022/09/16 07:12:31;;;;;;;4.60;2.65;;;;;;;27.14;49.01;99859.78;10246829;28;20418;-71
2022/09/16 07:17:32;;;;;;;16.08;3.55;;;;;;;26.88;49.88;99815.63;10247400;28;20043;-71
2022/09/16 07:22:33;;;;;;;5.82;2.42;;;;;;;26.54;50.15;99832.88;10247007;28;20137;-71
2022/09/16 07:27:33;;;;;;;5.10;2.50;;;;;;;25.96;49.05;99784.56;10247401;28;20043;-71
2022/09/16 07:32:34;;;;;;;4.40;2.20;;;;;;;26.26;48.48;99829.78;10246766;28;20046;-70
2022/09/16 07:37:35;;;;;;;11.02;2.50;;;;;;;26.25;48.03;99795.50;10246265;28;20126;-71
2022/09/16 07:42:35;;;;;;;4.95;2.58;;;;;;;26.82;47.37;99795.78;10246505;28;20502;-71
2022/09/16 07:47:36;;;;;;;6.80;2.58;;;;;;;27.01;47.55;99799.41;10246756;28;20038;-71
2022/09/16 07:52:37;;;;;;;5.80;2.30;;;;;;;27.00;46.70;99799.69;10246135;28;20085;-70
2022/09/16 07:57:38;;;;;;;7.18;2.30;;;;;;;27.05;45.79;99792.25;10245517;28;20050;-71
2022/09/16 08:02:38;;;;;;;8.30;2.17;;;;;;;27.14;45.51;99740.63;10246271;28;20101;-70
2022/09/16 08:07:39;;;;;;;12.77;2.92;;;;;;;27.59;45.23;99784.78;10245529;28;20043;-72
2022/09/16 08:12:40;;;;;;;6.25;2.08;;;;;;;27.23;45.11;99738.91;10245530;28;20071;-71
2022/09/16 08:17:41;;;;;;;4.28;1.80;;;;;;;27.29;44.03;99794.19;10245106;28;20055;-73
2022/09/16 08:22:41;;;;;;;4.95;1.63;;;;;;;26.86;43.77;99742.31;10245127;28;20097;-71
2022/09/16 08:27:42;;;;;;;7.95;1.45;;;;;;;27.23;43.40;99798.91;10245401;28;20040;-71
2022/09/16 08:32:43;;;;;;;4.25;1.17;;;;;;;27.02;42.67;99771.03;10245647;28;20513;-71
2022/09/16 08:37:44;;;;;;;5.82;1.70;;;;;;;26.86;41.67;99742.31;10244600;28;20070;-71
2022/09/16 08:42:58;;;;;;;5.30;1.30;;;;;;;27.46;42.09;99801.84;10244437;28;20046;-71
2022/09/16 08:48:33;;;;;;;4.72;1.52;;;;;;;27.16;40.54;99729.44;10244421;28;20810;-72
2022/09/16 08:53:43;;;;;;;6.35;1.50;;;;;;;27.69;40.10;99792.81;10244115;28;20051;-72
2022/09/16 08:58:47;;;;;;;5.05;1.60;;;;;;;27.79;40.26;99777.41;10244624;28;20110;-72
2022/09/16 09:03:48;;;;;;;6.55;1.50;;;;;;;27.77;40.12;99723.91;10244509;28;20138;-72
2022/09/16 09:09:08;;;;;;;6.57;1.67;;;;;;;28.10;39.08;99734.06;10244355;28;20142;-72
2022/09/16 09:14:11;;;;;;;2.53;1.25;;;;;;;28.46;35.66;99774.44;10246314;28;20414;-72
2022/09/16 09:19:33;;;;;;;8.18;1.77;;;;;;;28.00;35.33;99672.28;10250494;28;20039;-74
2022/09/16 09:24:48;;;;;;;4.55;1.27;;;;;;;28.17;37.16;99691.59;10250951;28;20409;-71
2022/09/16 09:29:58;;;;;;;4.45;1.23;;;;;;;28.50;37.29;99765.34;10250147;28;20055;-71
2022/09/16 09:35:11;;;;;;;3.35;1.35;;;;;;;28.33;38.27;99762.34;10250835;28;20051;-71
2022/09/16 09:40:18;;;;;;;3.42;1.13;;;;;;;28.22;36.88;99756.25;10250540;28;20410;-71
2022/09/16 09:45:45;;;;;;;5.88;1.20;;;;;;;28.35;36.85;99754.66;10250461;28;20527;-71
2022/09/16 09:50:48;;;;;;;4.22;1.45;;;;;;;28.22;37.63;99746.13;10249769;28;20093;-71
2022/09/16 09:56:03;;;;;;;2.92;1.10;;;;;;;28.23;36.77;99757.88;10250092;28;20106;-71
2022/09/16 10:01:04;;;;;;;8.68;1.38;;;;;;;28.09;37.25;99713.31;10249850;28;20059;-71
2022/09/16 10:06:06;;;;;;;4.65;1.40;;;;;;;28.87;36.58;99736.22;10249480;28;20043;-71
2022/09/16 10:11:16;;;;;;;2.75;1.30;;;;;;;29.57;34.96;99744.00;10249427;28;20126;-71
2022/09/16 10:16:20;;;;;;;27.92;2.95;;;;;;;29.40;35.71;99734.84;10248735;28;20075;-71
2022/09/16 10:21:21;;;;;;;7.57;1.30;;;;;;;28.94;35.41;99722.13;10248492;28;20043;-71
2022/09/16 10:26:23;;;;;;;10.00;1.58;;;;;;;28.65;35.49;99726.78;10249874;28;20043;-70
2022/09/16 10:31:26;;;;;;;7.75;1.30;;;;;;;28.48;35.57;99734.78;10248221;28;20046;-71
2022/09/16 10:36:32;;;;;;;13.38;1.95;;;;;;;28.04;35.95;99640.53;10249154;28;20101;-70
2022/09/16 10:41:41;;;;;;;21.15;2.50;;;;;;;27.90;36.78;99606.94;10247878;28;20074;-71
2022/09/16 10:46:56;;;;;;;15.73;2.00;;;;;;;28.56;36.26;99723.13;10247734;28;20049;-71
2022/09/16 10:52:08;;;;;;;12.02;1.88;;;;;;;28.21;36.91;99687.19;10248078;28;20522;-72
2022/09/16 10:57:33;;;;;;;74.60;28.10;;;;;;;28.35;37.48;99698.09;10247171;28;20046;-72
2022/09/16 11:03:10;;;;;;;9.90;4.90;;;;;;;28.58;35.40;99699.06;10248311;28;20062;-71
2022/09/16 11:08:20;;;;;;;9.38;2.72;;;;;;;28.14;37.13;99629.41;10246895;28;20577;-71
2022/09/16 11:13:38;;;;;;;7.13;1.55;;;;;;;28.51;35.14;99701.41;10247466;28;20051;-70
2022/09/16 11:18:45;;;;;;;26.45;7.28;;;;;;;28.31;35.91;99696.28;10246750;28;20100;-71
2022/09/16 11:24:13;;;;;;;19.05;5.35;;;;;;;27.97;35.55;99694.69;10246594;28;20047;-72
2022/09/16 11:29:35;;;;;;;19.25;2.75;;;;;;;27.35;34.27;99634.03;10246406;28;20458;-72
2022/09/16 11:34:45;;;;;;;23.13;4.18;;;;;;;27.15;34.60;99626.97;10246343;28;20039;-72
2022/09/16 11:40:14;;;;;;;31.15;11.02;;;;;;;27.38;35.55;99688.00;10246127;28;20053;-72
2022/09/16 11:45:39;;;;;;;17.33;5.72;;;;;;;26.83;36.27;99623.00;10245924;28;20089;-72
2022/09/16 11:51:02;;;;;;;8.45;2.00;;;;;;;27.08;36.77;99677.19;10246564;28;20054;-72
2022/09/16 11:56:10;;;;;;;10.30;1.90;;;;;;;27.03;38.13;99690.06;10245844;28;20050;-72
2022/09/16 12:01:30;;;;;;;20.23;2.10;;;;;;;26.56;37.47;99624.44;10245833;28;20120;-72
2022/09/16 12:06:48;;;;;;;24.80;4.05;;;;;;;26.88;38.40;99690.28;10246372;28;20472;-72
2022/09/16 12:11:54;;;;;;;17.10;4.88;;;;;;;26.71;38.45;99688.00;10245639;28;20042;-72
2022/09/16 12:17:00;;;;;;;29.70;5.15;;;;;;;26.23;39.76;99626.16;10245630;28;20043;-72
2022/09/16 12:22:10;;;;;;;18.33;4.70;;;;;;;26.48;40.52;99679.53;10244936;28;20422;-72
2022/09/16 12:27:22;;;;;;;17.33;4.40;;;;;;;26.51;40.43;99686.38;10252302;28;20038;-71
2022/09/16 12:32:42;;;;;;;13.53;3.80;;;;;;;26.33;39.84;99675.09;10249474;28;20553;-71
2022/09/16 12:37:49;;;;;;;31.33;6.55;;;;;;;26.22;40.76;99673.56;10281360;28;20039;-70
2022/09/16 12:43:16;;;;;;;38.10;7.65;;;;;;;26.07;42.45;99665.53;10282930;28;20050;-70
2022/09/16 12:48:34;;;;;;;26.80;5.50;;;;;;;25.96;42.11;99676.50;10272430;28;20039;-70
2022/09/16 12:53:45;;;;;;;33.33;7.28;;;;;;;25.91;42.28;99664.88;10272817;28;20073;-70
2022/09/16 12:59:07;;;;;;;30.95;8.23;;;;;;;25.45;42.26;99599.97;10265477;28;20082;-70
2022/09/16 13:04:38;;;;;;;50.05;9.57;;;;;;;25.57;46.94;99633.03;10267074;28;20105;-70
2022/09/16 13:09:39;;;;;;;43.22;8.05;;;;;;;25.43;44.28;99623.91;10274999;28;20433;-70
2022/09/16 13:14:53;;;;;;;48.15;7.32;;;;;;;25.60;44.54;99646.06;10290398;28;20043;-70
2022/09/16 13:20:32;;;;;;;29.10;6.28;;;;;;;25.65;43.32;99637.06;10290880;28;20057;-70
2022/09/16 13:25:45;;;;;;;27.77;5.32;;;;;;;25.74;45.35;99636.16;10265982;28;20059;-70
2022/09/16 13:30:46;;;;;;;18.23;4.47;;;;;;;25.48;46.02;99600.19;10250709;28;20050;-72
2022/09/16 13:35:49;;;;;;;23.83;4.40;;;;;;;25.91;44.34;99645.84;10250536;28;20046;-70
2022/09/16 13:41:00;;;;;;;102.13;8.82;;;;;;;26.07;44.26;99638.31;10260836;28;20051;-71
2022/09/16 13:46:09;;;;;;;28.83;5.22;;;;;;;26.24;42.83;99635.16;10249863;28;20039;-71
2022/09/16 13:51:20;;;;;;;32.53;4.75;;;;;;;26.50;41.66;99636.50;10260415;28;20051;-71
2022/09/16 13:56:56;;;;;;;16.60;3.80;;;;;;;26.63;42.72;99643.97;10254456;28;20043;-71
2022/09/16 14:02:13;;;;;;;28.00;4.63;;;;;;;26.61;41.39;99638.00;10267852;28;20063;-72
2022/09/16 14:07:49;;;;;;;31.75;4.03;;;;;;;26.53;41.96;99633.19;10260119;28;20104;-71
2022/09/16 14:13:12;;;;;;;19.60;2.15;;;;;;;25.94;41.03;99536.41;10252004;28;20051;-70
2022/09/16 14:18:17;;;;;;;13.85;4.47;;;;;;;25.98;41.23;99572.03;10242874;28;20134;-72
2022/09/16 14:23:19;;;;;;;29.95;2.95;;;;;;;26.18;41.68;99634.41;10242652;28;20042;-68
2022/09/16 14:28:23;;;;;;;16.38;2.28;;;;;;;25.54;41.71;99557.44;10240516;29;20051;-69
2022/09/16 14:33:54;;;;;;;26.70;4.00;;;;;;;25.81;41.73;99614.03;10248277;28;20056;-69
2022/09/16 14:39:03;;;;;;;43.15;5.68;;;;;;;25.59;41.80;99619.16;10267745;28;20059;-69
2022/09/16 14:44:19;;;;;;;38.40;3.25;;;;;;;25.48;42.32;99624.66;10256557;28;20043;-70
2022/09/16 14:49:21;;;;;;;38.45;3.67;;;;;;;24.90;43.21;99556.59;10260301;28;20525;-71
2022/09/16 14:54:25;;;;;;;15.98;2.47;;;;;;;25.13;42.79;99620.31;10248905;28;20079;-70
2022/09/16 14:59:30;;;;;;;34.53;2.65;;;;;;;25.02;43.44;99633.13;10285011;28;20101;-69
2022/09/16 15:04:35;;;;;;;16.33;2.70;;;;;;;24.80;43.47;99627.28;10278082;28;20096;-70
2022/09/16 15:10:19;;;;;;;26.88;2.97;;;;;;;24.77;44.60;99627.84;10244293;28;20041;-70
2022/09/16 15:15:24;;;;;;;5.82;1.83;;;;;;;24.34;44.41;99594.84;10240679;28;20051;-70
2022/09/16 15:20:29;;;;;;;14.38;2.97;;;;;;;24.35;45.31;99620.88;10246057;29;20070;-70
2022/09/16 15:25:33;;;;;;;13.75;3.65;;;;;;;23.94;45.86;99593.09;10247058;28;20134;-72
2022/09/16 15:30:34;;;;;;;13.55;4.53;;;;;;;23.82;46.79;99628.63;10242712;28;20066;-71
2022/09/16 15:35:35;;;;;;;27.23;6.00;;;;;;;23.41;49.85;99615.84;10241381;28;20566;-72
2022/09/16 15:40:36;;;;;;;13.23;3.92;;;;;;;22.81;49.29;99538.00;10240992;28;20053;-71
2022/09/16 15:45:40;;;;;;;14.02;3.80;;;;;;;22.92;49.63;99591.13;10239423;28;20046;-72
2022/09/16 15:50:53;;;;;;;22.20;5.45;;;;;;;23.06;51.54;99626.66;10254343;28;20039;-72
2022/09/16 15:56:00;;;;;;;23.27;6.13;;;;;;;22.80;53.23;99623.84;10239872;28;20601;-74
2022/09/16 16:01:16;;;;;;;37.58;7.05;;;;;;;22.55;54.66;99611.03;10240526;28;20059;-71
2022/09/16 16:06:16;;;;;;;34.85;13.70;;;;;;;22.34;53.22;99610.94;10230997;28;20103;-69
2022/09/16 16:11:19;;;;;;;35.80;13.32;;;;;;;22.31;55.11;99630.41;10285774;28;20188;-71
2022/09/16 16:16:21;;;;;;;32.55;10.93;;;;;;;22.25;55.07;99636.84;10284759;28;20035;-70
2022/09/16 16:21:22;;;;;;;16.42;6.25;;;;;;;22.13;54.21;99609.16;10284533;28;20076;-72
2022/09/16 16:26:23;;;;;;;17.00;4.45;;;;;;;22.14;53.28;99620.81;10284755;28;20121;-68
2022/09/16 16:31:24;;;;;;;8.82;3.28;;;;;;;22.18;53.44;99616.53;10294119;28;20050;-68
2022/09/16 16:36:24;;;;;;;11.93;3.30;;;;;;;21.91;54.32;99584.97;10271326;28;20035;-71
2022/09/16 16:41:27;;;;;;;6.25;2.40;;;;;;;21.70;54.58;99557.00;10263130;28;20055;-71
2022/09/16 16:46:28;;;;;;;11.68;2.90;;;;;;;21.72;54.56;99567.53;10257147;28;20043;-70
2022/09/16 16:51:29;;;;;;;11.90;2.50;;;;;;;22.13;54.58;99649.75;10274782;28;20573;-69
2022/09/16 16:56:30;;;;;;;15.75;3.45;;;;;;;21.87;54.73;99610.94;10272439;28;20134;-69
2022/09/16 17:01:32;;;;;;;16.20;3.97;;;;;;;21.55;54.95;99554.19;10259783;28;20149;-70
2022/09/16 17:06:34;;;;;;;11.18;3.03;;;;;;;22.00;55.57;99629.38;10256062;28;20043;-71
2022/09/16 17:11:36;;;;;;;7.80;2.85;;;;;;;21.92;55.83;99623.66;10266426;28;20051;-69
2022/09/16 17:16:37;;;;;;;6.35;2.65;;;;;;;21.70;56.18;99567.81;10256055;28;20105;-70
2022/09/16 17:21:39;;;;;;;15.57;3.17;;;;;;;21.58;56.95;99542.88;10274217;28;20423;-69
2022/09/16 17:26:39;;;;;;;6.50;3.00;;;;;;;21.95;57.85;99596.09;10248389;29;20079;-69
2022/09/16 17:31:40;;;;;;;10.35;2.50;;;;;;;21.64;58.30;99536.44;10249905;28;20070;-69
2022/09/16 17:36:44;;;;;;;4.88;2.00;;;;;;;22.13;59.10;99608.38;10248711;28;20051;-69
2022/09/16 17:41:47;;;;;;;6.95;2.60;;;;;;;22.20;59.08;99617.09;10250021;28;20071;-69
2022/09/16 17:46:48;;;;;;;7.30;2.47;;;;;;;22.10;59.23;99613.22;10249508;28;20039;-69
2022/09/16 17:51:50;;;;;;;9.02;3.20;;;;;;;22.16;59.47;99624.06;10249626;28;20054;-70
2022/09/16 17:56:51;;;;;;;11.85;2.85;;;;;;;22.14;59.72;99624.34;10248571;29;20043;-69
2022/09/16 18:01:52;;;;;;;10.63;2.97;;;;;;;22.14;59.66;99618.94;10248583;28;20136;-69
2022/09/16 18:06:53;;;;;;;12.68;3.17;;;;;;;21.88;59.87;99591.72;10248302;28;20133;-69
2022/09/16 18:11:57;;;;;;;10.27;3.03;;;;;;;21.94;60.28;99608.78;10248317;28;20039;-69
2022/09/16 18:16:58;;;;;;;6.53;2.70;;;;;;;22.03;59.75;99620.75;10248825;28;20043;-69
2022/09/16 18:21:59;;;;;;;6.97;2.22;;;;;;;21.74;60.37;99582.44;10252081;28;20479;-68
2022/09/16 18:27:00;;;;;;;5.68;2.30;;;;;;;21.84;60.79;99604.16;10279665;28;20122;-69
2022/09/16 18:32:01;;;;;;;5.38;2.30;;;;;;;20.82;61.19;99456.63;10282437;28;20053;-69
2022/09/16 18:37:02;;;;;;;10.05;2.67;;;;;;;21.14;61.65;99511.44;10287493;28;20054;-71
2022/09/16 18:42:02;;;;;;;7.50;2.30;;;;;;;21.07;61.69;99504.63;10287343;28;20043;-68
2022/09/16 18:47:03;;;;;;;6.90;2.65;;;;;;;21.43;61.60;99563.28;10285314;28;20042;-69
2022/09/16 18:52:04;;;;;;;7.95;3.13;;;;;;;21.57;61.40;99562.88;10285031;28;20055;-68
2022/09/16 18:57:05;;;;;;;4.30;2.70;;;;;;;21.61;61.29;99553.97;10280667;28;20046;-69
2022/09/16 19:02:10;;;;;;;22.23;3.22;;;;;;;21.72;61.97;99564.84;10282061;28;20529;-68
2022/09/16 19:07:13;;;;;;;5.72;3.15;;;;;;;21.59;62.03;99550.69;10284706;28;20142;-67
2022/09/16 19:12:14;;;;;;;5.88;2.70;;;;;;;21.59;62.10;99558.81;10285544;28;20034;-68
2022/09/16 19:17:15;;;;;;;7.05;3.97;;;;;;;21.43;62.43;99525.47;10284317;28;20042;-69
2022/09/16 19:22:16;;;;;;;8.40;3.47;;;;;;;21.43;62.81;99532.75;10282419;28;20129;-69
2022/09/16 19:27:17;;;;;;;7.78;3.55;;;;;;;21.49;63.18;99544.44;10284939;28;20092;-69
2022/09/16 19:32:18;;;;;;;8.55;3.50;;;;;;;21.17;63.43;99493.91;10284194;28;20031;-69
2022/09/16 19:37:19;;;;;;;9.43;3.65;;;;;;;20.58;63.64;99402.16;10282329;28;20042;-69
2022/09/16 19:42:21;;;;;;;5.97;3.25;;;;;;;21.40;63.85;99534.09;10275650;28;20053;-70
2022/09/16 19:47:22;;;;;;;10.43;3.42;;;;;;;21.31;64.23;99529.41;10284305;28;20047;-69
2022/09/16 19:52:22;;;;;;;11.05;4.00;;;;;;;21.29;64.56;99529.66;10268426;28;20062;-69
2022/09/16 19:57:23;;;;;;;9.90;3.45;;;;;;;20.61;64.86;99421.38;10264318;28;20087;-69
2022/09/16 20:02:24;;;;;;;5.10;3.10;;;;;;;21.15;64.71;99504.97;10282071;28;20145;-69
2022/09/16 20:07:25;;;;;;;6.75;2.85;;;;;;;21.30;64.47;99520.50;10285942;28;20054;-69
2022/09/16 20:12:25;;;;;;;8.93;3.67;;;;;;;21.28;63.95;99498.31;10282618;28;20043;-69
2022/09/16 20:17:26;;;;;;;8.57;3.00;;;;;;;21.39;63.61;99513.56;10264276;28;20047;-69
2022/09/16 20:22:27;;;;;;;7.75;2.95;;;;;;;21.32;63.68;99510.22;10284760;28;20100;-69
2022/09/16 20:27:28;;;;;;;8.60;3.03;;;;;;;21.21;63.99;99478.81;10285299;28;20130;-69
2022/09/16 20:32:28;;;;;;;6.60;2.95;;;;;;;21.25;64.24;99490.72;10285073;28;20074;-69
2022/09/16 20:37:29;;;;;;;6.13;3.50;;;;;;;21.27;64.83;99501.25;10285098;28;20043;-69
2022/09/16 20:42:30;;;;;;;5.85;3.25;;;;;;;21.08;64.83;99471.97;10285359;28;20068;-69
2022/09/16 20:47:31;;;;;;;9.35;3.50;;;;;;;20.99;64.73;99457.31;10284669;28;20043;-69
2022/09/16 20:52:32;;;;;;;6.95;3.58;;;;;;;21.28;64.64;99486.72;10283939;28;20417;-69
2022/09/16 20:57:32;;;;;;;9.43;3.75;;;;;;;21.24;64.95;99482.88;10284045;28;20045;-69
2022/09/16 21:02:34;;;;;;;8.30;3.55;;;;;;;20.60;65.75;99391.94;10282874;28;20146;-69
2022/09/16 21:07:35;;;;;;;8.63;3.92;;;;;;;20.63;66.61;99397.63;10283951;28;20413;-70
2022/09/16 21:12:36;;;;;;;7.43;3.28;;;;;;;20.93;67.25;99472.66;10289864;28;20050;-69
2022/09/16 21:17:36;;;;;;;9.13;4.25;;;;;;;20.59;68.06;99439.72;10290392;28;20508;-69
2022/09/16 21:22:37;;;;;;;8.70;5.72;;;;;;;20.50;68.62;99469.00;10290091;28;20074;-69
2022/09/16 21:27:38;;;;;;;17.58;11.30;;;;;;;19.72;70.01;99375.94;10290692;28;20096;-69
2022/09/16 21:32:41;;;;;;;15.65;9.00;;;;;;;20.10;70.42;99463.16;10291190;28;20141;-69
2022/09/16 21:37:42;;;;;;;16.77;8.77;;;;;;;19.51;71.71;99397.19;10290246;28;20038;-69
2022/09/16 21:42:44;;;;;;;28.50;8.38;;;;;;;19.79;73.81;99484.34;10289666;28;20054;-69
2022/09/16 21:47:46;;;;;;;25.33;11.70;;;;;;;18.84;73.72;99338.91;10289394;28;20070;-69
2022/09/16 21:52:46;;;;;;;29.65;14.63;;;;;;;19.55;74.35;99468.38;10289626;28;20092;-69
2022/09/16 21:57:47;;;;;;;22.75;14.38;;;;;;;19.21;74.99;99434.50;10289812;28;20450;-69
2022/09/16 22:02:48;;;;;;;15.68;8.65;;;;;;;19.32;75.44;99458.59;10289361;28;20101;-69
2022/09/16 22:07:49;;;;;;;11.38;5.45;;;;;;;19.03;75.96;99420.22;10288457;28;20066;-69
2022/09/16 22:12:50;;;;;;;17.63;5.78;;;;;;;19.22;75.75;99447.69;10288636;28;20042;-71
2022/09/16 22:17:53;;;;;;;15.00;5.95;;;;;;;19.13;75.86;99433.00;10276009;28;20092;-69
2022/09/16 22:22:55;;;;;;;15.65;5.72;;;;;;;19.27;76.52;99450.47;10279974;28;20130;-69
2022/09/16 22:27:55;;;;;;;16.58;5.55;;;;;;;19.20;77.08;99432.84;10261803;28;20501;-69
2022/09/16 22:32:56;;;;;;;14.85;5.20;;;;;;;18.96;77.20;99387.25;10274351;28;20184;-69
2022/09/16 22:37:57;;;;;;;16.73;4.70;;;;;;;19.45;77.08;99430.53;10264279;28;20126;-69
2022/09/16 22:42:58;;;;;;;9.18;4.20;;;;;;;19.61;76.61;99439.63;10248917;28;20047;-69
2022/09/16 22:47:58;;;;;;;9.25;4.55;;;;;;;19.64;75.74;99424.84;10247650;28;20500;-69
2022/09/16 22:52:59;;;;;;;9.52;4.60;;;;;;;19.52;75.04;99401.50;10282184;28;20047;-69
2022/09/16 22:58:00;;;;;;;8.40;4.55;;;;;;;19.70;75.53;99418.47;10286670;28;20100;-69
2022/09/16 23:03:01;;;;;;;38.97;5.55;;;;;;;19.73;76.35;99421.47;10273744;28;20097;-69
2022/09/16 23:08:01;;;;;;;10.77;4.50;;;;;;;19.15;76.77;99350.94;10258120;28;20039;-69
2022/09/16 23:13:02;;;;;;;28.30;11.30;;;;;;;19.41;77.34;99429.38;10247463;28;20039;-69
2022/09/16 23:18:04;;;;;;;38.55;12.68;;;;;;;19.36;78.90;99432.00;10265841;28;20085;-70
2022/09/16 23:23:05;;;;;;;29.73;11.18;;;;;;;19.22;78.98;99444.19;10287309;28;20054;-69
2022/09/16 23:28:06;;;;;;;11.75;6.68;;;;;;;18.68;78.82;99355.88;10286361;28;20049;-69
2022/09/16 23:33:06;;;;;;;13.68;6.82;;;;;;;19.19;79.14;99434.72;10286408;28;20047;-69
2022/09/16 23:38:07;;;;;;;10.63;5.15;;;;;;;19.47;78.58;99470.66;10286332;28;20042;-69
2022/09/16 23:43:08;;;;;;;14.68;5.45;;;;;;;19.49;79.05;99479.31;10261070;28;20058;-69